Flag for Uzbekistan

Past Weather in Tashkent, Uzbekistan — Yesterday and Last 2 Weeks

Currently: 39 °F. Clear. (Weather station: Tashkent, Uzbekistan). See more current weather

Past Weather in Tashkent — Graph

°F

Tashkent Temperature Yesterday

Maximum temperature yesterday: 63 °F (at 1:00 pm)
Minimum temperature yesterday: 36 °F (at 6:30 am)
Average temperature yesterday: 50 °F

High & Low Weather Summary for the Past Weeks

 TemperatureHumidityPressure
High70 °F (Jan 16, 1:30 pm)100% (Jan 4, 6:00 am)30.72 "Hg (Jan 4, 6:00 am)
Low16 °F (Jan 9, 2:30 am)14% (Jan 11, 1:30 pm)29.77 "Hg (Jan 18, 5:30 am)
Average35 °F68%30.27 "Hg
* Reported Jan 4 6:00 am — Jan 19 6:30 am, Tashkent. Weather by CustomWeather, © 2021

Note: Actual official high and low records may vary slightly from our data, if they occured in-between our weather recording intervals... More about our weather records

Tashkent Weather History for the Previous 24 Hours

Scroll right to see more
 ConditionsComfort  
Time TempWeatherWind HumidityBarometerVisibility
6:30 am
Tue, Jan 19
41 °FClear.No wind76%29.92 "Hg10 mi
6:00 am41 °FClear.2 mph76%29.89 "Hg10 mi
5:30 am41 °FPassing clouds.5 mph70%29.89 "HgN/A
4:30 am45 °FClear.7 mph66%29.89 "Hg10 mi
4:00 am43 °FClear.7 mph66%29.86 "Hg10 mi
3:30 am43 °FClear.7 mph71%29.89 "Hg10 mi
3:00 am50 °FClear.7 mph54%29.89 "Hg10 mi
2:30 am50 °FPassing clouds.7 mph54%29.89 "HgN/A
2:00 am50 °FPassing clouds.14 mph54%29.89 "HgN/A
1:30 am50 °FPassing clouds.14 mph54%29.86 "HgN/A
1:00 am52 °FPassing clouds.16 mph54%29.86 "HgN/A
12:30 am52 °FPassing clouds.16 mph50%29.89 "HgN/A
12:00 am52 °FPassing clouds.16 mph54%29.89 "HgN/A
11:30 pm
Mon, Jan 18
52 °FPassing clouds.14 mph54%29.89 "HgN/A
11:00 pm52 °FPassing clouds.5 mph47%29.89 "HgN/A
10:30 pm57 °FPassing clouds.5 mph36%29.89 "HgN/A
10:00 pm55 °FPassing clouds.2 mph38%29.89 "HgN/A
9:30 pm54 °FPassing clouds.9 mph44%29.89 "HgN/A
9:00 pm55 °FPassing clouds.7 mph41%29.86 "HgN/A
8:30 pm57 °FPassing clouds.12 mph36%29.86 "HgN/A
8:00 pm57 °FPassing clouds.14 mph39%29.86 "HgN/A
7:30 pm57 °FPassing clouds.14 mph36%29.86 "HgN/A
7:00 pm52 °FPassing clouds.9 mph54%29.92 "Hg2 mi
6:30 pm52 °FPassing clouds.2 mph58%29.89 "Hg2 mi
6:00 pm52 °FPassing clouds.2 mph58%29.86 "Hg2 mi
5:30 pm52 °FPassing clouds.9 mph62%29.86 "Hg2 mi
5:00 pm54 °FPassing clouds.2 mph54%29.83 "Hg2 mi
4:30 pm55 °FPassing clouds.2 mph47%29.83 "Hg2 mi
4:00 pm57 °FClear.5 mph44%29.83 "Hg2 mi
3:30 pm59 °FClear.5 mph42%29.80 "Hg2 mi
3:00 pm61 °FClear.5 mph36%29.80 "Hg3 mi
2:30 pm61 °FClear.2 mph34%29.77 "Hg4 mi
2:00 pm61 °FClear.5 mph34%29.77 "Hg4 mi
1:30 pm61 °FPassing clouds.7 mph34%29.77 "HgN/A
1:00 pm63 °FSunny.2 mph22%29.77 "Hg10 mi
12:30 pm61 °FClear.9 mph23%29.77 "Hg4 mi
12:00 pm59 °FClear.14 mph25%29.80 "Hg4 mi
11:30 am57 °FClear.12 mph27%29.80 "Hg4 mi
11:00 am52 °FClear.7 mph38%29.80 "Hg4 mi
10:30 am48 °FClear.2 mph46%29.83 "Hg4 mi
10:00 am46 °FSunny.7 mph46%29.86 "Hg10 mi
9:30 am46 °FSunny.2 mph43%29.83 "Hg10 mi
9:00 am46 °FSunny.7 mph37%29.80 "Hg10 mi
8:30 am41 °FSunny.7 mph53%29.80 "Hg10 mi
8:00 am43 °FSunny.7 mph46%29.80 "Hg10 mi
Weather by CustomWeather, © 2021

See weather overview